createdAt,value
2023-03-26T00:01:00.481Z,1.35
2023-03-26T00:03:40.860Z,1.65
2023-03-26T00:06:14.256Z,2.60
2023-03-26T00:08:51.312Z,2.87
2023-03-26T00:11:23.627Z,1.58
2023-03-26T00:13:51.608Z,1.87
2023-03-26T00:16:26.975Z,1.50
2023-03-26T00:18:57.698Z,1.48
2023-03-26T00:21:26.792Z,1.60
2023-03-26T00:24:21.001Z,1.42
2023-03-26T00:26:53.709Z,2.67
2023-03-26T00:29:32.080Z,1.15
2023-03-26T00:32:05.085Z,1.55
2023-03-26T00:34:34.934Z,1.55
2023-03-26T00:37:05.642Z,1.80
2023-03-26T00:39:33.023Z,1.92
2023-03-26T00:42:04.299Z,1.90
2023-03-26T00:44:38.169Z,1.48
2023-03-26T00:47:05.172Z,1.95
2023-03-26T00:49:41.754Z,2.30
2023-03-26T00:52:12.329Z,1.55
2023-03-26T00:54:48.204Z,2.70
2023-03-26T00:57:29.006Z,2.15
2023-03-26T01:00:06.898Z,1.48
2023-03-26T01:02:34.016Z,1.83
2023-03-26T01:05:05.966Z,1.60
2023-03-26T01:07:42.595Z,1.55
2023-03-26T01:10:13.018Z,2.03
2023-03-26T01:12:40.897Z,2.20
2023-03-26T01:15:13.766Z,1.48
2023-03-26T01:17:44.618Z,1.90
2023-03-26T01:20:22.465Z,1.40
2023-03-26T01:22:59.343Z,2.17
2023-03-26T01:25:40.476Z,2.12
2023-03-26T01:28:15.933Z,1.55
2023-03-26T01:31:07.097Z,2.50
2023-03-26T01:33:47.247Z,1.73
2023-03-26T01:36:45.231Z,2.05
2023-03-26T01:39:40.847Z,2.00
2023-03-26T01:42:19.193Z,1.02
2023-03-26T01:45:01.876Z,1.30
2023-03-26T01:47:30.586Z,1.15
2023-03-26T01:50:07.263Z,1.40
2023-03-26T01:52:39.836Z,1.10
2023-03-26T01:55:16.778Z,1.35
2023-03-26T01:58:17.304Z,1.25
2023-03-26T02:00:59.234Z,1.00
2023-03-26T02:03:31.677Z,1.73
2023-03-26T02:06:14.542Z,1.75
2023-03-26T02:09:06.662Z,1.25
2023-03-26T02:11:40.683Z,2.03
2023-03-26T02:14:12.853Z,1.30
2023-03-26T02:16:43.380Z,1.00
2023-03-26T02:19:10.261Z,1.77
2023-03-26T02:21:43.635Z,1.35
2023-03-26T02:24:20.547Z,1.12
2023-03-26T02:26:56.361Z,1.67
2023-03-26T02:29:26.793Z,2.85
2023-03-26T02:31:59.857Z,1.15
2023-03-26T02:37:02.858Z,1.62
2023-03-26T02:39:32.552Z,1.00
2023-03-26T02:41:59.598Z,1.62
2023-03-26T02:44:33.222Z,1.65
2023-03-26T02:47:02.794Z,1.00
2023-03-26T02:49:34.190Z,1.40
2023-03-26T02:52:02.144Z,1.48
2023-03-26T02:54:34.826Z,1.23
2023-03-26T02:57:07.300Z,1.02
2023-03-26T02:59:40.977Z,2.22
2023-03-26T03:02:08.545Z,1.08
2023-03-26T03:04:35.872Z,1.75
2023-03-26T03:07:05.750Z,1.42
2023-03-26T03:09:39.428Z,2.25
2023-03-26T03:12:09.031Z,2.62
2023-03-26T03:14:48.999Z,1.00
2023-03-26T03:17:16.690Z,1.27
2023-03-26T03:19:45.201Z,1.10
2023-03-26T03:22:18.657Z,1.33
2023-03-26T03:24:54.536Z,1.73
2023-03-26T03:27:24.966Z,1.50
2023-03-26T03:29:55.265Z,1.27
2023-03-26T03:32:25.786Z,1.70
2023-03-26T03:34:58.826Z,2.47
2023-03-26T03:37:25.943Z,1.73
2023-03-26T03:40:01.833Z,1.00
2023-03-26T03:42:32.100Z,1.40
2023-03-26T03:45:05.011Z,1.77
2023-03-26T03:47:40.602Z,0.98
2023-03-26T03:50:08.853Z,1.10
2023-03-26T03:52:39.271Z,1.75
2023-03-26T03:55:06.589Z,1.05
2023-03-26T03:57:39.455Z,1.45
2023-03-26T04:00:15.993Z,1.10
2023-03-26T04:02:46.342Z,1.20
2023-03-26T04:05:20.717Z,1.42
2023-03-26T04:07:48.505Z,1.08
2023-03-26T04:10:19.365Z,2.10
2023-03-26T04:12:49.156Z,1.10
2023-03-26T04:15:21.757Z,1.17
2023-03-26T04:17:49.121Z,1.48
2023-03-26T04:20:22.669Z,1.02
2023-03-26T04:22:55.533Z,1.15
2023-03-26T04:25:22.706Z,1.65
2023-03-26T04:27:52.949Z,1.00
2023-03-26T04:30:25.980Z,1.25
2023-03-26T04:32:55.307Z,1.12
2023-03-26T04:35:25.498Z,1.23
2023-03-26T04:37:59.079Z,1.12
2023-03-26T04:40:30.199Z,1.25
2023-03-26T04:43:00.449Z,0.90
2023-03-26T04:45:35.823Z,1.33
2023-03-26T04:48:06.661Z,1.08
2023-03-26T04:50:36.705Z,1.08
2023-03-26T04:53:03.790Z,1.30
2023-03-26T04:55:46.037Z,1.42
2023-03-26T04:58:17.094Z,1.10
2023-03-26T05:00:46.453Z,1.77
2023-03-26T05:03:17.001Z,1.00
2023-03-26T05:05:44.184Z,1.15
2023-03-26T05:08:15.342Z,1.12
2023-03-26T05:10:45.511Z,1.00
2023-03-26T05:13:12.939Z,1.42
2023-03-26T05:15:40.784Z,1.08
2023-03-26T05:18:07.998Z,1.23
2023-03-26T05:20:38.702Z,1.77
2023-03-26T05:23:14.164Z,1.10
2023-03-26T05:25:44.166Z,0.93
2023-03-26T05:28:13.621Z,1.27
2023-03-26T05:30:43.217Z,1.20
2023-03-26T05:33:17.294Z,1.00
2023-03-26T05:35:48.914Z,0.77
2023-03-26T05:38:25.080Z,1.02
2023-03-26T05:40:52.594Z,1.23
2023-03-26T05:43:19.845Z,1.23
2023-03-26T05:45:50.977Z,0.80
2023-03-26T05:48:21.492Z,1.08
2023-03-26T05:50:59.795Z,0.98
2023-03-26T05:53:28.372Z,1.23
2023-03-26T05:56:01.419Z,1.08
2023-03-26T05:58:35.845Z,1.25
2023-03-26T06:01:07.780Z,1.02
2023-03-26T06:03:38.984Z,1.10
2023-03-26T06:06:14.716Z,1.42
2023-03-26T06:09:02.208Z,0.85
2023-03-26T06:11:34.012Z,1.23
2023-03-26T06:14:07.977Z,0.73
2023-03-26T06:16:41.259Z,1.30
2023-03-26T06:19:08.465Z,0.85
2023-03-26T06:21:36.353Z,1.08
2023-03-26T06:24:09.151Z,1.20
2023-03-26T06:26:36.376Z,0.88
2023-03-26T06:29:03.920Z,1.17
2023-03-26T06:31:34.053Z,1.05
2023-03-26T06:34:12.105Z,0.75
2023-03-26T06:36:47.359Z,1.10
2023-03-26T06:39:20.788Z,0.68
2023-03-26T06:41:55.810Z,1.10
2023-03-26T06:44:28.541Z,1.08
2023-03-26T06:46:58.578Z,0.82
2023-03-26T06:49:28.738Z,1.20
2023-03-26T06:52:00.690Z,0.70
2023-03-26T06:54:30.632Z,1.15
2023-03-26T06:57:03.300Z,0.82
2023-03-26T06:59:33.428Z,1.27
2023-03-26T07:02:03.693Z,0.90
2023-03-26T07:04:34.056Z,1.30
2023-03-26T07:07:07.433Z,0.70
2023-03-26T07:09:37.827Z,0.80
2023-03-26T07:12:05.609Z,0.88
2023-03-26T07:14:38.938Z,1.25
2023-03-26T07:17:09.064Z,0.90
2023-03-26T07:19:37.827Z,0.90
2023-03-26T07:22:17.032Z,0.80
2023-03-26T07:24:46.660Z,1.00
2023-03-26T07:27:29.103Z,0.70
2023-03-26T07:30:09.488Z,0.70
2023-03-26T07:32:59.889Z,0.68
2023-03-26T07:35:41.771Z,1.33
2023-03-26T07:38:24.070Z,1.33
2023-03-26T07:41:17.811Z,1.45
2023-03-26T07:44:15.919Z,0.85
2023-03-26T07:46:43.171Z,1.40
2023-03-26T07:49:23.038Z,2.25
2023-03-26T07:51:56.369Z,0.70
2023-03-26T07:54:35.402Z,1.12
2023-03-26T07:57:15.929Z,1.15
2023-03-26T07:59:58.677Z,1.12
2023-03-26T08:02:37.796Z,1.05
2023-03-26T08:05:25.604Z,0.75
2023-03-26T08:08:13.704Z,0.95
2023-03-26T08:11:06.887Z,0.68
2023-03-26T08:13:54.372Z,0.85
2023-03-26T08:16:40.708Z,0.95
2023-03-26T08:19:30.286Z,1.23
2023-03-26T08:22:13.846Z,1.02
2023-03-26T08:24:55.601Z,0.70
2023-03-26T08:27:28.732Z,1.23
2023-03-26T08:30:17.234Z,0.85
2023-03-26T08:32:55.117Z,0.93
2023-03-26T08:35:29.321Z,0.80
2023-03-26T08:38:00.086Z,1.23
2023-03-26T08:40:56.925Z,0.82
2023-03-26T08:43:48.662Z,0.90
2023-03-26T08:46:24.851Z,1.23
2023-03-26T08:49:20.597Z,1.00
2023-03-26T08:52:27.392Z,0.65
2023-03-26T08:55:13.264Z,0.70
2023-03-26T08:57:58.694Z,0.70
2023-03-26T09:00:41.074Z,0.95
2023-03-26T09:03:50.889Z,1.00
2023-03-26T09:06:51.928Z,0.93
2023-03-26T09:09:37.404Z,1.40
2023-03-26T09:12:43.855Z,0.98
2023-03-26T09:15:41.506Z,0.77
2023-03-26T09:18:46.001Z,1.08
2023-03-26T09:21:42.359Z,0.80
2023-03-26T09:24:33.746Z,0.85
2023-03-26T09:27:09.601Z,0.73
2023-03-26T09:30:02.670Z,0.80
2023-03-26T09:32:47.784Z,0.88
2023-03-26T09:35:17.753Z,0.73
2023-03-26T09:38:00.914Z,0.82
2023-03-26T09:41:13.386Z,1.20
2023-03-26T09:43:55.674Z,1.12
2023-03-26T09:47:01.302Z,0.98
2023-03-26T09:49:52.793Z,1.15
2023-03-26T09:52:46.768Z,0.73
2023-03-26T09:55:32.396Z,1.27
2023-03-26T09:58:17.911Z,1.37
2023-03-26T10:01:03.151Z,0.70
2023-03-26T10:03:54.562Z,0.70
2023-03-26T10:06:54.219Z,0.80
2023-03-26T10:09:42.923Z,0.80
2023-03-26T10:12:25.336Z,0.70
2023-03-26T10:15:05.761Z,1.43
2023-03-26T10:18:27.459Z,0.77
2023-03-26T10:21:28.384Z,0.70
2023-03-26T10:24:12.869Z,0.85
2023-03-26T10:27:09.309Z,1.05
2023-03-26T10:29:55.556Z,0.75
2023-03-26T10:32:44.241Z,4.25
2023-03-26T10:35:38.851Z,8.10
2023-03-26T10:38:25.325Z,7.95
2023-03-26T10:41:19.535Z,6.60
2023-03-26T10:44:15.631Z,9.35
2023-03-26T10:47:27.554Z,17.90
2023-03-26T10:50:07.203Z,28.20
2023-03-26T10:53:00.781Z,18.02
2023-03-26T10:58:12.925Z,26.77
2023-03-26T11:00:51.228Z,22.37
2023-03-26T11:03:38.088Z,18.50
2023-03-26T11:06:27.469Z,20.37
2023-03-26T11:09:15.835Z,20.23
2023-03-26T11:12:25.650Z,28.40
2023-03-26T11:15:32.591Z,26.77
2023-03-26T11:18:19.606Z,32.03
2023-03-26T11:21:19.794Z,15.25
2023-03-26T11:24:18.487Z,18.80
2023-03-26T11:26:51.761Z,15.48
2023-03-26T11:29:34.490Z,11.73
2023-03-26T11:32:21.140Z,16.60
2023-03-26T11:35:10.287Z,16.37
2023-03-26T11:37:48.309Z,13.52
2023-03-26T11:40:35.539Z,18.95
2023-03-26T11:43:13.095Z,18.52
2023-03-26T11:45:52.193Z,13.80
2023-03-26T11:48:31.689Z,12.82
2023-03-26T11:51:30.819Z,14.82
2023-03-26T11:54:00.979Z,9.82
2023-03-26T11:57:06.022Z,13.68
2023-03-26T11:59:45.211Z,18.75
2023-03-26T12:02:31.938Z,15.35
2023-03-26T12:05:11.498Z,17.15
2023-03-26T12:08:05.358Z,13.82
2023-03-26T12:10:38.555Z,8.13
2023-03-26T12:13:30.670Z,11.40
2023-03-26T12:16:10.751Z,8.48
2023-03-26T12:18:40.146Z,10.65
2023-03-26T12:21:15.546Z,9.35
2023-03-26T12:23:57.281Z,25.20
2023-03-26T12:26:46.733Z,11.63
2023-03-26T12:29:16.859Z,8.75
2023-03-26T12:32:06.843Z,12.25
2023-03-26T12:34:43.382Z,7.07
2023-03-26T12:37:39.991Z,10.15
2023-03-26T12:40:31.397Z,9.95
2023-03-26T12:44:49.858Z,6.12
2023-03-26T12:47:45.972Z,11.12
2023-03-26T12:48:52.103Z,7.20
2023-03-26T12:51:40.548Z,8.93
2023-03-26T12:54:44.708Z,6.95
2023-03-26T12:57:22.303Z,8.95
2023-03-26T12:59:59.605Z,4.43
2023-03-26T13:02:51.025Z,6.87
2023-03-26T13:05:42.401Z,2.65
2023-03-26T13:08:27.784Z,8.18
2023-03-26T13:11:20.439Z,6.40
2023-03-26T13:14:26.183Z,6.27
2023-03-26T13:17:33.880Z,16.02
2023-03-26T13:20:09.555Z,10.50
2023-03-26T13:23:05.377Z,10.65
2023-03-26T13:26:01.432Z,13.73
2023-03-26T13:28:54.096Z,9.68
2023-03-26T13:31:40.227Z,18.87
2023-03-26T13:34:51.804Z,10.98
2023-03-26T13:37:19.210Z,9.15
2023-03-26T13:40:16.143Z,12.88
2023-03-26T13:43:01.696Z,11.68
2023-03-26T13:46:09.400Z,11.75
2023-03-26T13:48:55.212Z,11.27
2023-03-26T13:51:58.312Z,11.50
2023-03-26T13:55:16.389Z,13.82
2023-03-26T13:58:01.747Z,10.32
2023-03-26T14:00:48.982Z,8.90
2023-03-26T14:03:34.925Z,13.95
2023-03-26T14:06:13.171Z,14.93
2023-03-26T14:08:55.501Z,9.27
2023-03-26T14:11:42.276Z,8.20
2023-03-26T14:14:51.755Z,12.50
2023-03-26T14:17:43.311Z,12.02
2023-03-26T14:20:28.802Z,9.20
2023-03-26T14:23:14.284Z,6.65
2023-03-26T14:26:10.670Z,12.80
2023-03-26T14:29:08.624Z,8.95
2023-03-26T14:31:52.453Z,10.25
2023-03-26T14:34:44.129Z,6.28
2023-03-26T14:37:28.945Z,11.75
2023-03-26T14:40:11.251Z,11.02
2023-03-26T14:43:00.989Z,13.32
2023-03-26T14:45:56.299Z,26.80
2023-03-26T14:48:36.605Z,9.90
2023-03-26T14:51:24.842Z,18.02
2023-03-26T14:54:04.024Z,21.92
2023-03-26T14:57:07.789Z,16.00
2023-03-26T15:02:56.355Z,19.27
2023-03-26T15:05:47.601Z,23.10
2023-03-26T15:08:20.791Z,13.15
2023-03-26T15:11:25.000Z,12.80
2023-03-26T15:14:22.263Z,14.25
2023-03-26T15:17:26.665Z,10.38
2023-03-26T15:20:21.067Z,17.60
2023-03-26T15:23:34.702Z,16.15
2023-03-26T15:26:50.510Z,15.40
2023-03-26T15:29:41.591Z,19.50
2023-03-26T15:32:56.658Z,36.42
2023-03-26T15:36:00.497Z,12.40
2023-03-26T15:41:18.779Z,12.93
2023-03-26T15:44:24.015Z,19.30
2023-03-26T15:46:59.758Z,24.42
2023-03-26T15:49:45.243Z,14.10
2023-03-26T15:52:54.974Z,14.35
2023-03-26T15:55:30.371Z,15.80
2023-03-26T15:58:15.625Z,16.83
2023-03-26T16:00:59.785Z,13.38
2023-03-26T16:03:40.202Z,15.57
2023-03-26T16:06:50.204Z,20.75
2023-03-26T16:09:23.890Z,22.35
2023-03-26T16:12:19.114Z,17.08
2023-03-26T16:15:10.507Z,23.85
2023-03-26T16:18:10.810Z,10.90
2023-03-26T16:21:31.812Z,19.27
2023-03-26T16:24:03.764Z,14.50
2023-03-26T16:26:51.924Z,25.17
2023-03-26T16:29:30.840Z,15.13
2023-03-26T16:32:12.879Z,21.98
2023-03-26T16:34:59.533Z,16.87
2023-03-26T16:37:39.585Z,15.13
2023-03-26T16:40:32.360Z,18.80
2023-03-26T16:43:17.834Z,17.05
2023-03-26T16:46:11.970Z,18.85
2023-03-26T16:48:51.226Z,16.80
2023-03-26T16:51:58.903Z,20.08
2023-03-26T16:54:45.978Z,15.10
2023-03-26T16:57:23.186Z,14.70
2023-03-26T17:00:08.294Z,19.90
2023-03-26T17:03:02.957Z,16.92
2023-03-26T17:06:18.167Z,20.35
2023-03-26T17:09:17.639Z,18.30
2023-03-26T17:12:14.715Z,18.48
2023-03-26T17:15:12.284Z,15.38
2023-03-26T17:18:05.827Z,18.62
2023-03-26T17:21:26.009Z,18.85
2023-03-26T17:24:18.923Z,20.15
2023-03-26T17:27:05.381Z,23.85
2023-03-26T17:30:01.509Z,15.10
2023-03-26T17:32:58.921Z,21.00
2023-03-26T17:35:51.492Z,16.92
2023-03-26T17:38:27.633Z,10.13
2023-03-26T17:40:57.421Z,10.57
2023-03-26T17:43:45.663Z,9.20
2023-03-26T17:46:39.111Z,15.70
2023-03-26T17:49:19.400Z,12.93
2023-03-26T17:52:08.882Z,13.52
2023-03-26T17:54:48.992Z,12.30
2023-03-26T17:57:44.411Z,15.98
2023-03-26T18:00:42.718Z,15.00
2023-03-26T18:03:42.411Z,16.87
2023-03-26T18:06:38.260Z,15.30
2023-03-26T18:09:33.067Z,14.60
2023-03-26T18:12:34.553Z,10.45
2023-03-26T18:15:14.001Z,18.10
2023-03-26T18:17:47.313Z,12.27
2023-03-26T18:20:26.737Z,41.17
2023-03-26T18:22:54.368Z,23.83
2023-03-26T18:25:34.773Z,17.67
2023-03-26T18:28:06.459Z,15.18
2023-03-26T18:30:46.740Z,18.17
2023-03-26T18:33:17.886Z,12.48
2023-03-26T18:35:53.813Z,9.48
2023-03-26T18:38:36.093Z,12.93
2023-03-26T18:41:22.486Z,11.55
2023-03-26T18:44:01.302Z,18.08
2023-03-26T18:46:39.555Z,17.20
2023-03-26T18:49:11.032Z,12.40
2023-03-26T18:51:54.044Z,9.32
2023-03-26T18:54:31.489Z,12.65
2023-03-26T18:57:15.817Z,11.63
2023-03-26T18:59:53.400Z,12.20
2023-03-26T19:02:28.437Z,10.70
2023-03-26T19:04:56.431Z,12.30
2023-03-26T19:07:29.247Z,14.98
2023-03-26T19:09:57.787Z,17.45
2023-03-26T19:12:34.897Z,13.15
2023-03-26T19:15:17.236Z,11.40
2023-03-26T19:17:52.961Z,13.43
2023-03-26T19:20:27.345Z,14.80
2023-03-26T19:22:56.174Z,14.50
2023-03-26T19:25:29.263Z,12.05
2023-03-26T19:30:35.870Z,9.23
2023-03-26T19:33:25.262Z,10.48
2023-03-26T19:36:04.422Z,10.38
2023-03-26T19:38:55.153Z,10.60
2023-03-26T19:41:38.317Z,19.33
2023-03-26T19:44:27.659Z,11.00
2023-03-26T19:47:11.462Z,13.05
2023-03-26T19:50:03.091Z,9.68
2023-03-26T19:52:44.210Z,12.75
2023-03-26T19:55:26.946Z,14.10
2023-03-26T19:57:59.092Z,9.43
2023-03-26T20:00:32.963Z,11.87
2023-03-26T20:03:03.638Z,10.30
2023-03-26T20:05:39.125Z,13.13
2023-03-26T20:08:16.602Z,9.25
2023-03-26T20:10:43.940Z,8.43
2023-03-26T20:13:17.960Z,11.35
2023-03-26T20:16:05.771Z,12.95
2023-03-26T20:18:45.131Z,11.35
2023-03-26T20:21:16.868Z,7.07
2023-03-26T20:23:51.690Z,16.33
2023-03-26T20:26:23.096Z,7.60
2023-03-26T20:28:58.327Z,8.35
2023-03-26T20:31:30.575Z,11.98
2023-03-26T20:33:57.604Z,9.50
2023-03-26T20:36:34.194Z,6.90
2023-03-26T20:39:10.825Z,8.40
2023-03-26T20:41:44.565Z,9.35
2023-03-26T20:44:17.552Z,7.80
2023-03-26T20:46:48.548Z,9.02
2023-03-26T20:49:22.386Z,6.78
2023-03-26T20:51:56.153Z,10.68
2023-03-26T20:54:39.255Z,6.68
2023-03-26T20:57:15.280Z,8.15
2023-03-26T20:59:48.668Z,9.63
2023-03-26T21:02:21.711Z,8.43
2023-03-26T21:07:26.295Z,11.10
2023-03-26T21:09:56.362Z,8.32
2023-03-26T21:12:33.508Z,8.48
2023-03-26T21:15:22.319Z,7.82
2023-03-26T21:17:51.695Z,6.60
2023-03-26T21:20:30.202Z,6.82
2023-03-26T21:23:13.751Z,6.50
2023-03-26T21:26:24.834Z,6.45
2023-03-26T21:28:53.760Z,5.62
2023-03-26T21:31:23.037Z,7.22
2023-03-26T21:33:54.541Z,8.73
2023-03-26T21:36:27.764Z,4.93
2023-03-26T21:39:01.146Z,8.05
2023-03-26T21:42:04.789Z,6.43
2023-03-26T21:44:37.165Z,6.20
2023-03-26T21:47:10.155Z,6.93
2023-03-26T21:49:37.921Z,5.65
2023-03-26T21:52:06.075Z,6.82
2023-03-26T21:54:36.683Z,5.93
2023-03-26T21:57:21.742Z,6.03
2023-03-26T22:00:06.518Z,4.85
2023-03-26T22:02:57.324Z,9.63
2023-03-26T22:06:02.111Z,7.47
2023-03-26T22:08:41.842Z,5.70
2023-03-26T22:11:15.683Z,5.60
2023-03-26T22:13:42.694Z,4.62
2023-03-26T22:16:10.027Z,4.25
2023-03-26T22:18:39.957Z,4.32
2023-03-26T22:21:12.921Z,6.28
2023-03-26T22:23:45.137Z,4.47
2023-03-26T22:26:18.747Z,4.73
2023-03-26T22:28:49.507Z,8.15
2023-03-26T22:31:20.619Z,4.15
2023-03-26T22:33:48.313Z,4.82
2023-03-26T22:36:22.824Z,6.85
2023-03-26T22:38:53.131Z,6.47
2023-03-26T22:41:22.056Z,3.70
2023-03-26T22:43:58.167Z,5.32
2023-03-26T22:46:30.482Z,4.37
2023-03-26T22:49:03.671Z,5.45
2023-03-26T22:51:33.581Z,6.93
2023-03-26T22:54:09.797Z,4.97
2023-03-26T22:56:45.170Z,3.95
2023-03-26T22:59:20.579Z,4.70
2023-03-26T23:01:54.728Z,6.40
2023-03-26T23:04:31.090Z,4.78
2023-03-26T23:07:04.105Z,4.32
2023-03-26T23:09:40.675Z,5.32
2023-03-26T23:12:10.565Z,4.82
2023-03-26T23:14:47.255Z,6.07
2023-03-26T23:17:17.596Z,5.57
2023-03-26T23:19:46.047Z,4.20
2023-03-26T23:22:19.086Z,5.53
2023-03-26T23:27:24.527Z,3.65
2023-03-26T23:29:57.895Z,4.75
2023-03-26T23:32:29.512Z,6.18
2023-03-26T23:34:59.413Z,5.20
2023-03-26T23:37:36.702Z,4.25
2023-03-26T23:40:07.350Z,3.90
2023-03-26T23:42:39.449Z,4.93
2023-03-26T23:45:07.144Z,4.22
2023-03-26T23:47:34.325Z,4.15
2023-03-26T23:50:02.602Z,4.95
2023-03-26T23:52:39.134Z,5.50
2023-03-26T23:55:09.236Z,3.85
2023-03-26T23:57:45.351Z,6.55
